Time;durP1;ratioP1;P1;durP2;ratioP2;P2;SDS_P1;SDS_P2;PMS_P1;PMS_P2;Temp;Humidity;BMP_temperature;BMP_pressure;BME280_temperature;BME280_humidity;BME280_pressure;Samples;Min_cycle;Max_cycle;Signal;HPM_P1;HPM_P2
2022/03/03 00:01:23;;;;;;;33.30;16.00;;;5.20;44.70;;;;;;5081094;28;20505;-84
2022/03/03 00:03:50;;;;;;;26.10;13.00;;;5.20;44.70;;;;;;5081305;28;20455;-83
2022/03/03 00:06:17;;;;;;;34.63;13.80;;;5.20;44.70;;;;;;5081345;28;20462;-84
2022/03/03 00:08:43;;;;;;;25.33;13.20;;;5.10;44.80;;;;;;5084682;28;20478;-84
2022/03/03 00:11:10;;;;;;;22.53;13.00;;;5.10;44.90;;;;;;5063752;28;20471;-84
2022/03/03 00:13:37;;;;;;;25.13;13.70;;;5.10;45.00;;;;;;5069557;28;20458;-84
2022/03/03 00:16:07;;;;;;;28.70;14.57;;;5.10;45.10;;;;;;5064714;28;20455;-84
2022/03/03 00:18:34;;;;;;;27.27;12.80;;;5.00;45.60;;;;;;5067104;28;21025;-83
2022/03/03 00:21:01;;;;;;;22.00;12.70;;;5.00;45.80;;;;;;5067565;28;20529;-83
2022/03/03 00:23:28;;;;;;;15.80;9.77;;;4.90;45.60;;;;;;5089325;28;20467;-83
2022/03/03 00:25:55;;;;;;;17.50;10.90;;;4.80;46.20;;;;;;5084432;28;20458;-86
2022/03/03 00:28:22;;;;;;;26.40;12.40;;;4.70;46.20;;;;;;5086329;28;20997;-85
2022/03/03 00:30:49;;;;;;;28.70;13.03;;;4.70;46.00;;;;;;5082723;28;21507;-84
2022/03/03 00:33:17;;;;;;;26.73;12.50;;;4.60;46.00;;;;;;5085730;28;20462;-84
2022/03/03 00:35:44;;;;;;;23.33;11.27;;;4.60;46.20;;;;;;5083770;28;20462;-82
2022/03/03 00:38:12;;;;;;;20.10;12.17;;;4.60;46.40;;;;;;5085051;28;20470;-83
2022/03/03 00:40:39;;;;;;;22.63;11.67;;;4.60;46.40;;;;;;5052645;28;20466;-85
2022/03/03 00:43:06;;;;;;;25.20;13.60;;;4.60;46.10;;;;;;5086189;28;20508;-84
2022/03/03 00:45:34;;;;;;;23.97;13.47;;;4.70;46.10;;;;;;5070152;28;20496;-83
2022/03/03 00:48:01;;;;;;;25.07;12.90;;;4.70;46.00;;;;;;5087752;28;20553;-85
2022/03/03 00:50:30;;;;;;;23.80;13.00;;;4.70;45.70;;;;;;5034304;28;20467;-84
2022/03/03 00:52:57;;;;;;;27.77;11.30;;;4.70;45.60;;;;;;5087486;28;20717;-84
2022/03/03 00:55:24;;;;;;;19.73;11.90;;;4.70;45.50;;;;;;5058957;28;20467;-85
2022/03/03 00:57:51;;;;;;;25.40;13.23;;;4.70;45.50;;;;;;5086942;28;20456;-84
2022/03/03 01:00:18;;;;;;;19.90;11.63;;;4.70;45.90;;;;;;5069578;28;21013;-85
2022/03/03 01:02:45;;;;;;;24.27;13.57;;;4.60;46.20;;;;;;5088047;28;20542;-84
2022/03/03 01:05:12;;;;;;;19.30;10.70;;;4.60;46.40;;;;;;5086947;28;20455;-84
2022/03/03 01:07:41;;;;;;;16.30;10.23;;;4.50;46.50;;;;;;5088594;28;20549;-85
2022/03/03 01:10:10;;;;;;;26.60;12.37;;;4.50;46.70;;;;;;5064509;28;20476;-85
2022/03/03 01:12:37;;;;;;;18.63;11.27;;;4.50;46.60;;;;;;5088413;28;20459;-85
2022/03/03 01:15:05;;;;;;;23.17;10.53;;;4.60;46.60;;;;;;5081602;28;20463;-86
2022/03/03 01:17:32;;;;;;;23.93;11.33;;;4.60;46.50;;;;;;5086928;28;20462;-85
2022/03/03 01:20:00;;;;;;;17.80;10.93;;;4.50;46.60;;;;;;5066203;28;20483;-86
2022/03/03 01:22:27;;;;;;;19.23;11.00;;;4.40;46.70;;;;;;5032097;28;20459;-85
2022/03/03 01:24:55;;;;;;;17.60;10.43;;;4.20;47.00;;;;;;5067826;28;20455;-85
2022/03/03 01:27:22;;;;;;;23.47;10.60;;;4.20;46.80;;;;;;5068270;28;20440;-85
2022/03/03 01:29:49;;;;;;;24.27;12.30;;;4.30;46.60;;;;;;5085534;28;20468;-85
2022/03/03 01:32:16;;;;;;;18.73;11.93;;;4.30;46.50;;;;;;5065279;28;20455;-85
2022/03/03 01:34:43;;;;;;;19.13;10.90;;;4.20;46.60;;;;;;5055143;28;20834;-85
2022/03/03 01:37:10;;;;;;;22.37;12.40;;;4.20;46.70;;;;;;5051083;28;20439;-85
2022/03/03 01:39:37;;;;;;;19.50;11.33;;;4.20;46.80;;;;;;5049214;28;20479;-85
2022/03/03 01:42:06;;;;;;;16.97;10.17;;;4.30;46.70;;;;;;5067388;28;20458;-85
2022/03/03 01:44:33;;;;;;;19.87;10.97;;;4.30;46.60;;;;;;5064866;28;21192;-86
2022/03/03 01:47:00;;;;;;;22.90;11.70;;;4.30;47.00;;;;;;5065893;28;20466;-85
2022/03/03 01:49:27;;;;;;;20.80;11.60;;;4.20;47.10;;;;;;5084282;28;20942;-85
2022/03/03 01:51:55;;;;;;;25.83;11.53;;;4.30;46.80;;;;;;5084052;28;21146;-84
2022/03/03 01:54:22;;;;;;;21.23;11.40;;;4.30;46.40;;;;;;5066542;28;21138;-85
2022/03/03 01:56:49;;;;;;;26.17;13.10;;;4.30;46.40;;;;;;5083783;28;20462;-85
2022/03/03 01:59:18;;;;;;;24.97;11.53;;;4.20;46.50;;;;;;5049673;28;20501;-86
2022/03/03 02:01:46;;;;;;;22.50;10.40;;;4.20;46.90;;;;;;5057492;28;20463;-86
2022/03/03 02:04:13;;;;;;;21.43;12.43;;;4.20;46.70;;;;;;5064569;28;20460;-85
2022/03/03 02:06:39;;;;;;;20.93;10.33;;;4.20;46.60;;;;;;5068075;28;20451;-86
2022/03/03 02:09:06;;;;;;;19.70;10.83;;;4.20;46.20;;;;;;5082774;28;20468;-85
2022/03/03 02:11:34;;;;;;;23.53;12.20;;;4.20;46.50;;;;;;5069033;28;20494;-85
2022/03/03 02:14:03;;;;;;;16.20;10.70;;;3.90;47.30;;;;;;5037923;28;20443;-84
2022/03/03 02:16:32;;;;;;;22.43;11.77;;;3.50;48.30;;;;;;5084233;28;20881;-86
2022/03/03 02:18:59;;;;;;;19.60;11.57;;;3.40;48.80;;;;;;5066634;28;21027;-85
2022/03/03 02:21:28;;;;;;;16.33;11.27;;;3.50;48.60;;;;;;5065451;28;21201;-85
2022/03/03 02:23:55;;;;;;;18.77;11.17;;;3.70;47.80;;;;;;5048807;28;20539;-83
2022/03/03 02:26:24;;;;;;;24.87;12.03;;;3.60;47.50;;;;;;5049742;28;20447;-85
2022/03/03 02:28:53;;;;;;;22.20;12.60;;;3.60;48.20;;;;;;5084798;28;20477;-85
2022/03/03 02:31:21;;;;;;;25.27;12.00;;;3.60;47.90;;;;;;5084296;28;20467;-85
2022/03/03 02:33:48;;;;;;;28.77;12.73;;;3.50;48.30;;;;;;5050028;28;20448;-85
2022/03/03 02:36:20;;;;;;;26.53;12.60;;;3.50;48.70;;;;;;5065722;28;20463;-86
2022/03/03 02:38:51;;;;;;;22.90;10.40;;;3.50;48.70;;;;;;5065387;28;21016;-86
2022/03/03 02:41:19;;;;;;;18.03;11.07;;;3.60;49.10;;;;;;5061750;28;20460;-86
2022/03/03 02:43:46;;;;;;;21.40;11.23;;;3.60;48.50;;;;;;5062892;28;20451;-84
2022/03/03 02:46:14;;;;;;;16.77;10.03;;;3.60;48.20;;;;;;5082743;28;20460;-86
2022/03/03 02:48:41;;;;;;;17.60;10.73;;;3.30;48.30;;;;;;5084442;28;20932;-83
2022/03/03 02:51:09;;;;;;;31.73;11.63;;;3.20;48.80;;;;;;5037404;28;20853;-87
2022/03/03 02:53:36;;;;;;;17.57;9.37;;;3.20;48.80;;;;;;5084487;28;20470;-87
2022/03/03 02:56:06;;;;;;;25.67;11.07;;;3.20;48.60;;;;;;5062650;28;20451;-86
2022/03/03 02:58:33;;;;;;;17.50;9.47;;;3.10;48.20;;;;;;5084162;28;20460;-85
2022/03/03 03:01:01;;;;;;;20.23;11.60;;;3.10;49.10;;;;;;5062310;28;21159;-84
2022/03/03 03:03:28;;;;;;;19.00;10.13;;;3.10;48.90;;;;;;5066175;28;21033;-86
2022/03/03 03:05:55;;;;;;;21.70;12.83;;;3.20;48.50;;;;;;5056234;28;20904;-85
2022/03/03 03:08:22;;;;;;;22.67;10.13;;;3.20;48.70;;;;;;5082670;28;20465;-87
2022/03/03 03:10:49;;;;;;;19.70;11.67;;;3.30;48.40;;;;;;5083417;28;21252;-86
2022/03/03 03:13:18;;;;;;;23.97;11.23;;;3.40;48.50;;;;;;5083069;28;21160;-86
2022/03/03 03:15:45;;;;;;;17.10;9.13;;;3.40;47.70;;;;;;5063877;28;20439;-86
2022/03/03 03:18:14;;;;;;;27.33;14.87;;;3.20;48.20;;;;;;5062081;28;20487;-87
2022/03/03 03:20:43;;;;;;;20.60;11.10;;;2.90;49.30;;;;;;5045283;28;20563;-85
2022/03/03 03:23:12;;;;;;;21.97;11.63;;;2.80;49.50;;;;;;5047909;28;21424;-85
2022/03/03 03:25:39;;;;;;;17.90;10.27;;;2.90;49.20;;;;;;5045587;28;20454;-85
2022/03/03 03:28:06;;;;;;;21.87;10.60;;;3.00;48.80;;;;;;5083427;28;20577;-85
2022/03/03 03:30:35;;;;;;;21.53;11.00;;;3.10;48.20;;;;;;5065494;28;21033;-85
2022/03/03 03:33:02;;;;;;;18.10;10.70;;;2.90;48.30;;;;;;5064257;28;20455;-85
2022/03/03 03:35:29;;;;;;;24.90;12.13;;;2.60;48.70;;;;;;5082844;28;21124;-85
2022/03/03 03:37:56;;;;;;;23.40;12.20;;;2.50;50.00;;;;;;5080813;28;20451;-85
2022/03/03 03:40:23;;;;;;;13.93;8.70;;;2.60;50.40;;;;;;5051818;28;20468;-86
2022/03/03 03:42:50;;;;;;;16.03;11.23;;;2.80;49.80;;;;;;5056473;28;20471;-86
2022/03/03 03:45:17;;;;;;;23.30;11.73;;;2.80;49.40;;;;;;5063116;28;20950;-86
2022/03/03 03:47:45;;;;;;;14.83;10.40;;;2.80;49.30;;;;;;5083915;28;20459;-85
2022/03/03 03:50:14;;;;;;;16.30;9.80;;;2.90;49.00;;;;;;5063305;28;20487;-86
2022/03/03 03:52:42;;;;;;;21.27;10.90;;;3.00;48.60;;;;;;5083359;28;20463;-83
2022/03/03 03:55:11;;;;;;;15.10;9.57;;;3.10;48.10;;;;;;5083439;28;20459;-86
2022/03/03 03:57:38;;;;;;;19.83;9.60;;;3.20;47.80;;;;;;5054651;28;20467;-85
2022/03/03 04:00:07;;;;;;;21.87;10.17;;;3.20;47.40;;;;;;5081052;28;20467;-86
2022/03/03 04:02:39;;;;;;;20.33;10.03;;;3.30;47.30;;;;;;5082103;28;20451;-86
2022/03/03 04:05:08;;;;;;;17.10;9.50;;;3.30;47.20;;;;;;5080568;28;20451;-86
2022/03/03 04:07:36;;;;;;;17.90;11.10;;;3.30;47.10;;;;;;5080993;28;20459;-86
2022/03/03 04:10:04;;;;;;;16.03;9.73;;;3.30;47.10;;;;;;5080232;28;20486;-86
2022/03/03 04:12:31;;;;;;;19.73;9.43;;;3.30;47.50;;;;;;5045780;28;20543;-86
2022/03/03 04:14:58;;;;;;;12.90;10.13;;;3.30;47.30;;;;;;5062209;28;20455;-86
2022/03/03 04:17:25;;;;;;;28.57;11.60;;;3.30;46.90;;;;;;5081025;28;20455;-86
2022/03/03 04:19:52;;;;;;;21.77;11.20;;;3.10;46.70;;;;;;5064475;28;20486;-86
2022/03/03 04:22:20;;;;;;;19.73;10.10;;;2.90;48.30;;;;;;5077629;28;20969;-88
2022/03/03 04:24:47;;;;;;;15.50;9.57;;;2.80;49.00;;;;;;5061772;28;20463;-86
2022/03/03 04:27:14;;;;;;;20.67;10.17;;;2.90;48.70;;;;;;5082324;28;20463;-86
2022/03/03 04:29:42;;;;;;;19.50;12.07;;;2.90;48.00;;;;;;5046584;28;20475;-84
2022/03/03 04:32:09;;;;;;;21.60;11.40;;;2.80;48.40;;;;;;5081115;28;20484;-86
2022/03/03 04:34:36;;;;;;;21.37;12.17;;;2.80;48.90;;;;;;5054635;28;20451;-86
2022/03/03 04:37:03;;;;;;;21.47;12.27;;;2.80;49.50;;;;;;5047123;28;20439;-86
2022/03/03 04:39:31;;;;;;;16.30;11.77;;;2.90;48.90;;;;;;5083597;28;20468;-87
2022/03/03 04:41:59;;;;;;;23.07;11.90;;;3.00;48.20;;;;;;5083893;28;20497;-86
2022/03/03 04:44:26;;;;;;;17.03;9.87;;;3.00;48.00;;;;;;5064268;28;20464;-88
2022/03/03 04:46:53;;;;;;;16.50;10.27;;;3.10;47.70;;;;;;5066152;28;20502;-86
2022/03/03 04:49:20;;;;;;;17.30;10.20;;;3.10;47.50;;;;;;5082106;28;20550;-86
2022/03/03 04:51:48;;;;;;;24.93;11.50;;;3.20;47.50;;;;;;5064133;28;20452;-86
2022/03/03 04:54:16;;;;;;;16.87;11.03;;;2.90;49.20;;;;;;5074993;28;20471;-86
2022/03/03 04:56:45;;;;;;;20.00;12.40;;;2.60;50.60;;;;;;5080226;28;20543;-86
2022/03/03 04:59:12;;;;;;;17.53;10.90;;;2.50;50.50;;;;;;5082574;28;20529;-86
2022/03/03 05:01:39;;;;;;;21.40;10.10;;;2.40;50.50;;;;;;5065806;28;20452;-87
2022/03/03 05:04:06;;;;;;;17.43;10.87;;;2.30;49.80;;;;;;5050020;28;20550;-83
2022/03/03 05:06:32;;;;;;;32.87;19.03;;;2.30;49.30;;;;;;5085338;28;20463;-85
2022/03/03 05:08:59;;;;;;;36.60;20.23;;;2.40;49.80;;;;;;5083268;28;20885;-86
2022/03/03 05:11:26;;;;;;;52.40;28.33;;;2.30;49.10;;;;;;5082423;28;21956;-86
2022/03/03 05:13:55;;;;;;;22.40;11.87;;;2.40;49.30;;;;;;5063288;28;20451;-86
2022/03/03 05:16:22;;;;;;;18.27;12.27;;;2.20;49.10;;;;;;5084539;28;20889;-87
2022/03/03 05:18:49;;;;;;;16.70;9.43;;;2.10;49.90;;;;;;5084026;28;20471;-87
2022/03/03 05:21:15;;;;;;;13.73;8.90;;;1.90;49.80;;;;;;5062582;28;20456;-86
2022/03/03 05:23:42;;;;;;;21.10;9.87;;;1.70;50.70;;;;;;5085458;28;20463;-86
2022/03/03 05:26:09;;;;;;;19.77;10.60;;;1.80;51.50;;;;;;5086191;28;20505;-85
2022/03/03 05:28:36;;;;;;;16.00;8.10;;;1.90;51.10;;;;;;5058820;28;20450;-86
2022/03/03 05:31:05;;;;;;;19.40;11.07;;;2.10;51.20;;;;;;5050531;28;20993;-86
2022/03/03 05:33:33;;;;;;;18.97;9.63;;;2.20;51.90;;;;;;5068845;28;21263;-85
2022/03/03 05:36:03;;;;;;;16.97;10.00;;;2.40;50.60;;;;;;5049503;28;20455;-86
2022/03/03 05:38:32;;;;;;;17.20;11.67;;;2.50;50.10;;;;;;5085818;28;20455;-86
2022/03/03 05:40:59;;;;;;;15.17;10.03;;;2.40;50.00;;;;;;5065543;28;20475;-86
2022/03/03 05:43:28;;;;;;;16.00;9.53;;;2.20;50.00;;;;;;5066191;28;20643;-86
2022/03/03 05:45:56;;;;;;;30.37;12.73;;;2.30;50.20;;;;;;5067171;28;20459;-86
2022/03/03 05:48:25;;;;;;;22.57;11.20;;;2.40;49.30;;;;;;5084781;28;20470;-86
2022/03/03 05:50:53;;;;;;;19.97;9.90;;;2.40;49.30;;;;;;5066462;28;20847;-86
2022/03/03 05:53:20;;;;;;;18.30;10.00;;;2.40;49.50;;;;;;5087682;28;20450;-86
2022/03/03 05:55:50;;;;;;;20.40;10.63;;;2.50;49.30;;;;;;5083975;28;20513;-86
2022/03/03 05:58:19;;;;;;;23.57;12.27;;;2.50;48.50;;;;;;5084846;28;20444;-86
2022/03/03 06:00:47;;;;;;;23.97;11.50;;;2.50;48.40;;;;;;5062976;28;20739;-89
2022/03/03 06:03:16;;;;;;;14.10;9.70;;;2.60;48.10;;;;;;5082621;28;20455;-88
2022/03/03 06:05:49;;;;;;;22.50;9.20;;;2.70;47.80;;;;;;5064256;28;20452;-87
2022/03/03 06:08:18;;;;;;;17.97;11.07;;;2.70;47.70;;;;;;5063908;28;20519;-88
2022/03/03 06:10:51;;;;;;;17.33;9.83;;;2.70;47.50;;;;;;5080621;28;20488;-87
2022/03/03 06:13:23;;;;;;;23.70;11.90;;;2.80;47.50;;;;;;5082108;28;20461;-88
2022/03/03 06:15:50;;;;;;;19.03;9.67;;;2.70;47.60;;;;;;5069352;28;20447;-87
2022/03/03 06:18:21;;;;;;;17.67;9.93;;;2.60;48.00;;;;;;5062468;28;20451;-87
2022/03/03 06:20:51;;;;;;;17.40;11.30;;;2.60;48.50;;;;;;5079302;28;20569;-86
2022/03/03 06:23:18;;;;;;;17.23;11.00;;;2.50;49.30;;;;;;5080918;28;20489;-87
2022/03/03 06:25:46;;;;;;;20.57;10.50;;;2.30;49.80;;;;;;5080967;28;20500;-87
2022/03/03 06:28:13;;;;;;;22.77;10.07;;;2.40;49.30;;;;;;5044765;28;20518;-85
2022/03/03 06:30:39;;;;;;;30.03;14.87;;;2.50;48.90;;;;;;5082696;28;20494;-87
2022/03/03 06:33:06;;;;;;;29.50;14.10;;;2.40;49.00;;;;;;5084116;28;20464;-88
2022/03/03 06:35:36;;;;;;;18.90;11.57;;;2.40;49.00;;;;;;5040195;28;20560;-87
2022/03/03 06:38:08;;;;;;;21.07;10.73;;;2.40;49.00;;;;;;5058763;28;20604;-89
2022/03/03 06:40:35;;;;;;;20.53;10.97;;;2.30;49.10;;;;;;5051831;28;20564;-88
2022/03/03 06:43:03;;;;;;;19.07;10.37;;;2.30;49.30;;;;;;5052594;28;20543;-88
2022/03/03 06:45:31;;;;;;;24.97;10.27;;;2.40;49.10;;;;;;5085463;28;20518;-88
2022/03/03 06:48:00;;;;;;;20.30;10.70;;;2.40;49.30;;;;;;5067144;28;20490;-88
2022/03/03 06:50:27;;;;;;;21.73;10.50;;;2.40;48.90;;;;;;5082105;28;20476;-87
2022/03/03 06:52:55;;;;;;;16.83;10.70;;;2.60;48.90;;;;;;5064584;28;20967;-88
2022/03/03 06:55:25;;;;;;;22.63;12.23;;;2.60;48.60;;;;;;5060971;28;20468;-88
2022/03/03 06:57:59;;;;;;;21.60;11.23;;;2.80;48.60;;;;;;5060302;28;20450;-87
2022/03/03 07:00:28;;;;;;;16.63;10.57;;;2.90;48.50;;;;;;5062603;28;20517;-89
2022/03/03 07:02:55;;;;;;;26.90;13.60;;;2.90;48.40;;;;;;5080869;28;20970;-87
2022/03/03 07:05:23;;;;;;;20.17;11.43;;;2.80;48.30;;;;;;5080760;28;20800;-87
2022/03/03 07:07:52;;;;;;;19.97;10.33;;;2.70;48.40;;;;;;5063326;28;20458;-86
2022/03/03 07:10:23;;;;;;;31.63;13.97;;;2.70;48.80;;;;;;5060018;28;20487;-88
2022/03/03 07:12:54;;;;;;;29.07;13.00;;;2.80;48.80;;;;;;5043233;28;20444;-87
2022/03/03 07:15:21;;;;;;;25.07;11.50;;;2.90;48.90;;;;;;5049731;28;20887;-88
2022/03/03 07:17:51;;;;;;;27.80;11.67;;;2.90;48.50;;;;;;5054907;28;20448;-87
2022/03/03 07:20:21;;;;;;;19.33;10.00;;;3.00;48.50;;;;;;5063404;28;20491;-87
2022/03/03 07:23:00;;;;;;;27.97;11.77;;;3.00;48.40;;;;;;5061347;28;20536;-87
2022/03/03 07:25:51;;;;;;;21.50;10.90;;;3.10;48.30;;;;;;5065443;28;20494;-89
2022/03/03 07:28:21;;;;;;;27.93;11.23;;;3.00;48.80;;;;;;5063960;28;20455;-86
2022/03/03 07:30:51;;;;;;;18.50;11.07;;;3.00;48.80;;;;;;5047172;28;20471;-85
2022/03/03 07:33:24;;;;;;;22.80;12.17;;;3.00;48.70;;;;;;5065677;28;20543;-87
2022/03/03 07:35:56;;;;;;;24.10;12.13;;;3.00;49.40;;;;;;5082310;28;20447;-87
2022/03/03 07:38:27;;;;;;;24.70;13.97;;;3.00;49.00;;;;;;5083106;28;20512;-84
2022/03/03 07:40:54;;;;;;;20.10;11.60;;;3.10;48.70;;;;;;5080108;28;21048;-86
2022/03/03 07:43:22;;;;;;;18.00;10.30;;;3.10;48.70;;;;;;5048404;28;20452;-86
2022/03/03 07:45:49;;;;;;;15.90;9.20;;;3.10;48.70;;;;;;5047684;28;20455;-87
2022/03/03 07:48:16;;;;;;;15.80;10.60;;;3.20;49.00;;;;;;5083770;28;20470;-88
2022/03/03 07:50:44;;;;;;;17.43;10.30;;;3.20;49.10;;;;;;5083328;28;20479;-87
2022/03/03 07:53:12;;;;;;;23.87;10.33;;;3.10;48.90;;;;;;5050760;28;20435;-85
2022/03/03 07:55:43;;;;;;;19.03;10.83;;;3.00;48.90;;;;;;5064609;28;20543;-87
2022/03/03 07:58:14;;;;;;;21.60;10.90;;;3.00;48.90;;;;;;5064651;28;20459;-87
2022/03/03 08:00:47;;;;;;;24.10;11.33;;;3.00;48.90;;;;;;5082429;28;20869;-84
2022/03/03 08:03:17;;;;;;;23.30;11.57;;;3.10;49.30;;;;;;5069368;28;20546;-87
2022/03/03 08:05:46;;;;;;;21.80;11.83;;;3.10;49.20;;;;;;5065733;28;20556;-87
2022/03/03 08:08:16;;;;;;;22.53;11.10;;;3.10;49.50;;;;;;5066105;28;20452;-86
2022/03/03 08:10:45;;;;;;;24.73;13.80;;;3.10;49.80;;;;;;5082514;28;21047;-89
2022/03/03 08:13:14;;;;;;;27.63;12.60;;;3.20;49.80;;;;;;5064441;28;20797;-86
2022/03/03 08:15:43;;;;;;;29.07;14.80;;;3.10;50.30;;;;;;5056103;28;20544;-86
2022/03/03 08:18:11;;;;;;;25.40;13.07;;;3.20;50.50;;;;;;5085580;28;20812;-86
2022/03/03 08:20:38;;;;;;;26.93;11.37;;;3.30;50.20;;;;;;5064875;28;20472;-86
2022/03/03 08:23:07;;;;;;;24.80;13.60;;;3.40;50.00;;;;;;5050603;28;20481;-88
2022/03/03 08:25:35;;;;;;;21.80;11.97;;;3.50;49.70;;;;;;5082214;28;20463;-88
2022/03/03 08:28:03;;;;;;;23.30;11.93;;;3.50;49.80;;;;;;5064715;28;21042;-88
2022/03/03 08:30:31;;;;;;;27.17;12.13;;;3.60;49.80;;;;;;5081475;28;20475;-88
2022/03/03 08:33:06;;;;;;;25.90;12.80;;;3.70;49.80;;;;;;5063905;28;20462;-87
2022/03/03 08:35:39;;;;;;;29.37;13.47;;;3.70;49.80;;;;;;5083664;28;21305;-87
2022/03/03 08:38:08;;;;;;;26.73;12.40;;;3.80;49.80;;;;;;5083270;28;21152;-87
2022/03/03 08:40:36;;;;;;;22.17;10.50;;;3.80;49.70;;;;;;5038973;28;20467;-86
2022/03/03 08:43:05;;;;;;;18.57;11.50;;;3.90;49.70;;;;;;5037491;28;20456;-88
2022/03/03 08:45:34;;;;;;;21.97;11.53;;;3.90;49.60;;;;;;5081957;28;20508;-87
2022/03/03 08:48:06;;;;;;;18.90;11.00;;;3.90;49.90;;;;;;5067099;28;20464;-88
2022/03/03 08:50:35;;;;;;;24.50;12.57;;;4.00;49.90;;;;;;5071786;28;20477;-87
2022/03/03 08:53:04;;;;;;;23.50;12.50;;;4.00;49.90;;;;;;5037236;28;20447;-87
2022/03/03 08:55:32;;;;;;;16.70;11.37;;;4.10;50.00;;;;;;5065612;28;20547;-87
2022/03/03 08:57:59;;;;;;;17.90;11.10;;;4.20;50.00;;;;;;5087255;28;20942;-87
2022/03/03 09:00:27;;;;;;;21.23;11.40;;;4.20;49.90;;;;;;5059429;28;21277;-86
2022/03/03 09:02:54;;;;;;;19.07;11.03;;;4.30;49.60;;;;;;5065242;28;20564;-87
2022/03/03 09:05:23;;;;;;;20.97;11.07;;;4.30;49.20;;;;;;5070185;28;20460;-87
2022/03/03 09:07:50;;;;;;;18.73;11.60;;;4.20;49.20;;;;;;5067079;28;20460;-86
2022/03/03 09:10:17;;;;;;;19.00;11.33;;;4.10;49.40;;;;;;5052002;28;20476;-87
2022/03/03 09:12:45;;;;;;;18.17;10.93;;;4.20;49.70;;;;;;5041859;28;20448;-88
2022/03/03 09:15:12;;;;;;;20.60;11.90;;;4.30;49.60;;;;;;5067373;28;21049;-87
2022/03/03 09:17:40;;;;;;;22.57;11.10;;;4.40;49.50;;;;;;5067569;28;20536;-86
2022/03/03 09:20:11;;;;;;;24.67;10.40;;;4.50;49.40;;;;;;5085226;28;20478;-87
2022/03/03 09:22:40;;;;;;;21.47;10.37;;;4.50;49.30;;;;;;5048969;28;20768;-87
2022/03/03 09:25:07;;;;;;;20.80;11.23;;;4.70;49.20;;;;;;5068541;28;20447;-87
2022/03/03 09:27:34;;;;;;;22.50;10.70;;;4.80;49.20;;;;;;5085661;28;20447;-87
2022/03/03 09:30:01;;;;;;;21.60;11.77;;;4.90;49.10;;;;;;5085399;28;20484;-87
2022/03/03 09:32:28;;;;;;;23.17;12.23;;;4.90;48.90;;;;;;5086031;28;20582;-87
2022/03/03 09:34:55;;;;;;;18.33;10.70;;;5.00;48.80;;;;;;5084493;28;20546;-87
2022/03/03 09:37:22;;;;;;;19.90;11.23;;;5.00;48.90;;;;;;5067349;28;21485;-87
2022/03/03 09:39:50;;;;;;;23.13;11.83;;;5.00;49.20;;;;;;5064819;28;20476;-87
2022/03/03 09:42:17;;;;;;;19.07;11.13;;;5.10;49.40;;;;;;5069437;28;20527;-87
2022/03/03 09:44:45;;;;;;;24.37;11.50;;;5.30;49.40;;;;;;5031493;28;20447;-86
2022/03/03 09:47:12;;;;;;;21.43;10.80;;;5.40;49.40;;;;;;5067570;28;20466;-87
2022/03/03 09:49:39;;;;;;;20.90;11.40;;;5.60;49.20;;;;;;5084570;28;21022;-84
2022/03/03 09:52:12;;;;;;;17.67;10.80;;;5.70;48.80;;;;;;5068882;28;20471;-86
2022/03/03 09:54:40;;;;;;;24.60;11.00;;;5.90;48.20;;;;;;5066160;28;20448;-85
2022/03/03 09:57:08;;;;;;;23.87;12.90;;;6.20;48.00;;;;;;5067955;28;20459;-85
2022/03/03 09:59:35;;;;;;;21.27;11.40;;;6.40;47.50;;;;;;5066712;28;20527;-84
2022/03/03 10:02:03;;;;;;;20.90;12.13;;;6.50;47.30;;;;;;5054986;28;20447;-84
2022/03/03 10:04:30;;;;;;;22.53;12.60;;;6.70;47.20;;;;;;5067240;28;20445;-84
2022/03/03 10:07:02;;;;;;;16.57;11.60;;;6.80;46.80;;;;;;5067449;28;20456;-84
2022/03/03 10:09:29;;;;;;;20.53;12.13;;;6.80;46.10;;;;;;5058055;28;20475;-84
2022/03/03 10:12:03;;;;;;;22.53;12.10;;;6.80;46.50;;;;;;5067301;28;20470;-85
2022/03/03 10:14:33;;;;;;;16.27;10.93;;;7.10;46.80;;;;;;5068173;28;20452;-84
2022/03/03 10:17:01;;;;;;;19.73;10.30;;;7.30;46.60;;;;;;5047704;28;20468;-82
2022/03/03 10:19:29;;;;;;;26.67;12.80;;;7.50;45.40;;;;;;5065750;28;20483;-83
2022/03/03 10:21:56;;;;;;;25.50;14.10;;;7.50;44.60;;;;;;5051250;28;20448;-84
2022/03/03 10:24:25;;;;;;;22.67;12.33;;;7.40;44.90;;;;;;5034009;28;20489;-85
2022/03/03 10:26:59;;;;;;;19.63;12.60;;;7.50;44.70;;;;;;5066605;28;20951;-84
2022/03/03 10:29:27;;;;;;;25.87;13.37;;;7.80;44.40;;;;;;5087611;28;20516;-86
2022/03/03 10:31:57;;;;;;;22.17;11.67;;;8.10;43.90;;;;;;5066986;28;20470;-85
2022/03/03 10:34:28;;;;;;;22.20;12.80;;;8.30;43.90;;;;;;5085598;28;20470;-85
2022/03/03 10:37:02;;;;;;;21.17;11.97;;;8.60;42.70;;;;;;5082375;28;20509;-86
2022/03/03 10:39:40;;;;;;;18.23;11.33;;;8.70;42.40;;;;;;5065189;28;20474;-84
2022/03/03 10:42:13;;;;;;;15.97;9.87;;;8.70;41.80;;;;;;5040165;28;20453;-85
2022/03/03 10:44:40;;;;;;;18.63;11.77;;;9.00;42.20;;;;;;5063690;28;20452;-85
2022/03/03 10:47:11;;;;;;;30.43;14.97;;;9.30;41.90;;;;;;5086532;28;20452;-84
2022/03/03 10:49:39;;;;;;;24.87;12.97;;;9.50;40.90;;;;;;5086432;28;20471;-84
2022/03/03 10:52:12;;;;;;;21.07;11.97;;;9.80;40.50;;;;;;5055231;28;20475;-86
2022/03/03 10:54:56;;;;;;;21.13;11.73;;;9.80;39.60;;;;;;5081918;28;20451;-84
2022/03/03 10:57:38;;;;;;;18.33;10.93;;;10.00;38.10;;;;;;5037257;28;20809;-84
2022/03/03 11:00:09;;;;;;;16.17;11.10;;;10.20;38.40;;;;;;5081745;28;20485;-85
2022/03/03 11:02:39;;;;;;;26.83;13.23;;;10.40;37.70;;;;;;5086307;28;20783;-84
2022/03/03 11:05:09;;;;;;;31.93;19.43;;;10.40;37.30;;;;;;5082926;28;20984;-85
2022/03/03 11:07:36;;;;;;;18.80;11.70;;;10.40;36.90;;;;;;5084193;28;20852;-85
2022/03/03 11:10:05;;;;;;;26.67;11.00;;;10.60;36.90;;;;;;5064928;28;20459;-84
2022/03/03 11:12:32;;;;;;;23.40;15.10;;;10.80;36.10;;;;;;5053597;28;20546;-84
2022/03/03 11:15:00;;;;;;;21.93;13.07;;;11.00;35.90;;;;;;5056938;28;20497;-84
2022/03/03 11:17:27;;;;;;;21.77;13.40;;;11.20;36.10;;;;;;5081522;28;20990;-84
2022/03/03 11:19:59;;;;;;;20.20;12.20;;;11.40;35.60;;;;;;5085320;28;20479;-84
2022/03/03 11:22:26;;;;;;;19.23;11.43;;;11.60;35.30;;;;;;5041357;28;20462;-86
2022/03/03 11:24:56;;;;;;;19.07;10.70;;;11.80;35.20;;;;;;5050873;28;20448;-84
2022/03/03 11:27:32;;;;;;;22.70;10.40;;;11.80;34.40;;;;;;5083248;28;20454;-85
2022/03/03 11:30:28;;;;;;;23.17;12.00;;;12.10;35.50;;;;;;5040841;28;20475;-84
2022/03/03 11:33:21;;;;;;;21.07;11.67;;;12.20;33.70;;;;;;5061662;28;20475;-85
2022/03/03 11:35:51;;;;;;;15.50;10.40;;;12.40;34.40;;;;;;5082137;28;20837;-85
2022/03/03 11:38:19;;;;;;;20.30;12.40;;;12.30;33.90;;;;;;5065886;28;20448;-86
2022/03/03 11:40:54;;;;;;;20.20;11.50;;;12.50;34.50;;;;;;5063763;28;20479;-86
2022/03/03 11:43:22;;;;;;;19.23;11.27;;;12.60;33.00;;;;;;5081782;28;20876;-85
2022/03/03 11:45:51;;;;;;;19.53;11.53;;;12.60;33.40;;;;;;5064112;28;20517;-85
2022/03/03 11:48:19;;;;;;;13.47;9.60;;;12.90;34.30;;;;;;5065389;28;20467;-82
2022/03/03 11:50:46;;;;;;;16.47;10.90;;;13.30;33.70;;;;;;5081243;28;20529;-85
2022/03/03 11:53:23;;;;;;;13.27;9.13;;;13.50;31.10;;;;;;5067035;28;20471;-85
2022/03/03 11:55:58;;;;;;;18.33;11.07;;;13.40;29.60;;;;;;5052056;28;20831;-85
2022/03/03 11:58:34;;;;;;;21.27;11.67;;;13.60;30.40;;;;;;5066937;28;20918;-86
2022/03/03 12:01:12;;;;;;;15.80;10.90;;;13.70;30.50;;;;;;5053575;28;20844;-86
2022/03/03 12:04:01;;;;;;;22.83;10.67;;;13.40;30.80;;;;;;5083266;28;20475;-84
2022/03/03 12:06:40;;;;;;;16.50;9.53;;;13.60;31.40;;;;;;5066870;28;20464;-84
2022/03/03 12:09:19;;;;;;;16.00;9.60;;;13.20;28.90;;;;;;5047914;28;20459;-85
2022/03/03 12:11:47;;;;;;;14.70;9.27;;;13.40;28.60;;;;;;5037522;28;20554;-85
2022/03/03 12:14:39;;;;;;;13.90;8.50;;;13.70;28.70;;;;;;5063615;28;20801;-85
2022/03/03 12:17:39;;;;;;;15.87;9.23;;;13.60;27.90;;;;;;5042758;28;21042;-85
2022/03/03 12:20:33;;;;;;;17.00;10.20;;;14.10;28.00;;;;;;5062215;28;20876;-85
2022/03/03 12:23:04;;;;;;;17.53;9.20;;;13.90;27.60;;;;;;5063728;28;20440;-85
2022/03/03 12:25:59;;;;;;;13.97;9.67;;;13.40;27.60;;;;;;5082114;28;20503;-84
2022/03/03 12:28:28;;;;;;;14.30;9.43;;;13.50;28.20;;;;;;5081402;28;20462;-85
2022/03/03 12:30:55;;;;;;;16.20;9.90;;;13.70;28.20;;;;;;5063748;28;21017;-85
2022/03/03 12:33:24;;;;;;;16.70;9.90;;;13.80;28.10;;;;;;5069898;28;20472;-85
2022/03/03 12:35:52;;;;;;;17.00;9.80;;;13.90;28.40;;;;;;5069811;28;20860;-85
2022/03/03 12:38:20;;;;;;;19.93;10.73;;;14.20;28.10;;;;;;5089985;28;20446;-86
2022/03/03 12:40:48;;;;;;;15.90;8.60;;;14.60;28.00;;;;;;5089769;28;20470;-86
2022/03/03 12:43:18;;;;;;;15.67;9.63;;;15.00;27.60;;;;;;5091460;28;20520;-85
2022/03/03 12:45:46;;;;;;;18.40;10.20;;;15.10;26.70;;;;;;5089022;28;20452;-85